Time;durP1;ratioP1;P1;durP2;ratioP2;P2;SDS_P1;SDS_P2;PMS_P1;PMS_P2;Temp;Humidity;BMP_temperature;BMP_pressure;BME280_temperature;BME280_humidity;BME280_pressure;Samples;Min_cycle;Max_cycle;Signal;HPM_P1;HPM_P2
2022/03/08 00:07:11;;;;;;;47;63.3;;;;;;;-0.5;77.2;99220;;;;
2022/03/08 00:18:11;;;;;;;47.7;59.8;;;;;;;-0.3;77;99220;;;;
2022/03/08 00:28:11;;;;;;;47.7;59.8;;;;;;;-0.2;76.8;99220;;;;
2022/03/08 00:39:11;;;;;;;47.7;59.8;;;;;;;-0.1;76.5;99230;;;;
2022/03/08 00:50:11;;;;;;;48.5;56.9;;;;;;;0;76.6;99230;;;;
2022/03/08 01:00:11;;;;;;;48.5;56.9;;;;;;;0;76.4;99230;;;;
2022/03/08 01:11:11;;;;;;;48.5;56.9;;;;;;;0;76.5;99230;;;;
2022/03/08 01:22:11;;;;;;;47.9;55.7;;;;;;;-0.1;76.7;99230;;;;
2022/03/08 01:32:11;;;;;;;47.9;55.7;;;;;;;-0.2;76.7;99230;;;;
2022/03/08 01:42:11;;;;;;;47.9;55.7;;;;;;;-0.5;76.5;99220;;;;
2022/03/08 01:53:11;;;;;;;50.4;67;;;;;;;-1;76.3;99210;;;;
2022/03/08 02:04:12;;;;;;;50.4;67;;;;;;;-1.4;76.6;99200;;;;
2022/03/08 02:14:11;;;;;;;50.4;67;;;;;;;-1.8;77.2;99200;;;;
2022/03/08 02:24:11;;;;;;;42;51.6;;;;;;;-2.1;77.8;99200;;;;
2022/03/08 02:34:11;;;;;;;42;51.6;;;;;;;-2.3;78.6;99200;;;;
2022/03/08 02:44:11;;;;;;;42;51.6;;;;;;;-2.3;80.1;99200;;;;
2022/03/08 02:55:11;;;;;;;41.4;52.7;;;;;;;-2.4;80.7;99210;;;;
2022/03/08 03:06:11;;;;;;;41.4;52.7;;;;;;;-2.1;82.3;99220;;;;
2022/03/08 03:16:11;;;;;;;41.4;52.7;;;;;;;-1.7;82.8;99220;;;;
2022/03/08 03:27:11;;;;;;;49;62.5;;;;;;;-1.4;82.6;99230;;;;
2022/03/08 03:38:11;;;;;;;49;62.5;;;;;;;-1.1;81.9;99250;;;;
2022/03/08 03:49:11;;;;;;;60.7;74.8;;;;;;;-1;81.5;99250;;;;
2022/03/08 04:00:11;;;;;;;60.7;74.8;;;;;;;-0.8;80.8;99250;;;;
2022/03/08 04:10:11;;;;;;;60.7;74.8;;;;;;;-0.8;80.2;99260;;;;
2022/03/08 04:20:11;;;;;;;66;75.9;;;;;;;-0.7;80;99270;;;;
2022/03/08 04:30:11;;;;;;;66;75.9;;;;;;;-0.8;79.9;99280;;;;
2022/03/08 04:41:11;;;;;;;66;75.9;;;;;;;-0.7;80;99290;;;;
2022/03/08 04:51:11;;;;;;;64.8;82.7;;;;;;;-0.6;79.8;99290;;;;
2022/03/08 05:01:12;;;;;;;64.8;82.7;;;;;;;-0.6;79.1;99300;;;;
2022/03/08 05:12:11;;;;;;;64.8;82.7;;;;;;;-0.7;79.2;99300;;;;
2022/03/08 05:22:11;;;;;;;68.3;82.2;;;;;;;-0.6;78.8;99310;;;;
2022/03/08 05:32:11;;;;;;;68.3;82.2;;;;;;;-0.5;79.1;99330;;;;
2022/03/08 05:42:11;;;;;;;68.3;82.2;;;;;;;-0.5;78.7;99330;;;;
2022/03/08 05:53:11;;;;;;;61.5;72.4;;;;;;;-0.3;78.4;99340;;;;
2022/03/08 06:04:11;;;;;;;61.5;72.4;;;;;;;-0.3;78.3;99350;;;;
2022/03/08 06:14:11;;;;;;;61.5;72.4;;;;;;;-0.2;78.6;99340;;;;
2022/03/08 06:24:11;;;;;;;66.5;79.7;;;;;;;0.1;78;99340;;;;
2022/03/08 06:35:11;;;;;;;66.5;79.7;;;;;;;0.4;77;99350;;;;
2022/03/08 06:46:11;;;;;;;59;67.3;;;;;;;0.7;76.2;99360;;;;
2022/03/08 06:56:11;;;;;;;59;67.3;;;;;;;1.1;75.2;99360;;;;
2022/03/08 07:06:11;;;;;;;59;67.3;;;;;;;1.1;74;99370;;;;
2022/03/08 07:17:11;;;;;;;38.5;46.9;;;;;;;1.3;73.7;99370;;;;
2022/03/08 07:28:12;;;;;;;38.5;46.9;;;;;;;1.8;72;99350;;;;
2022/03/08 07:38:11;;;;;;;38.5;46.9;;;;;;;2;71.2;99350;;;;
2022/03/08 07:48:11;;;;;;;29.9;38.5;;;;;;;2.1;70.6;99360;;;;
2022/03/08 07:59:11;;;;;;;29.9;38.5;;;;;;;2.5;68.8;99360;;;;
2022/03/08 08:09:12;;;;;;;29.9;38.5;;;;;;;2.4;68.7;99370;;;;
2022/03/08 08:20:11;;;;;;;20.4;24.2;;;;;;;2.5;69.1;99360;;;;
2022/03/08 08:31:11;;;;;;;20.4;24.2;;;;;;;2.8;67.8;99370;;;;
2022/03/08 08:42:11;;;;;;;20.4;24.2;;;;;;;2.8;68;99390;;;;
2022/03/08 08:52:11;;;;;;;23.4;29.9;;;;;;;2.8;68.1;99400;;;;
2022/03/08 09:03:14;;;;;;;23.4;29.9;;;;;;;2.8;68.3;99400;;;;
2022/03/08 09:13:11;;;;;;;23.4;29.9;;;;;;;2.8;68.7;99400;;;;
2022/03/08 09:23:11;;;;;;;29.5;34.3;;;;;;;3;68.6;99400;;;;
2022/03/08 09:33:11;;;;;;;29.5;34.3;;;;;;;3.4;66.8;99410;;;;
2022/03/08 09:44:11;;;;;;;29.5;34.3;;;;;;;3.2;66.6;99410;;;;
2022/03/08 09:54:11;;;;;;;32.8;43.2;;;;;;;3.5;67;99410;;;;
2022/03/08 10:04:12;;;;;;;32.8;43.2;;;;;;;4.1;65;99410;;;;
2022/03/08 10:15:11;;;;;;;32.8;43.2;;;;;;;4;64.1;99410;;;;
2022/03/08 10:25:11;;;;;;;28;34.9;;;;;;;4.2;63.9;99420;;;;
2022/03/08 10:36:12;;;;;;;28;34.9;;;;;;;4.3;62.9;99420;;;;
2022/03/08 10:46:11;;;;;;;21.3;25.6;;;;;;;4.3;58.9;99400;;;;
2022/03/08 10:57:11;;;;;;;21.3;25.6;;;;;;;4.8;56.8;99390;;;;
2022/03/08 11:08:11;;;;;;;21.3;25.6;;;;;;;4.9;54.4;99380;;;;
2022/03/08 11:18:11;;;;;;;6.4;10.3;;;;;;;4.8;54.6;99370;;;;
2022/03/08 11:28:13;;;;;;;6.4;10.3;;;;;;;5.4;53.2;99350;;;;
2022/03/08 11:39:11;;;;;;;6.4;10.3;;;;;;;5.1;50.7;99340;;;;
2022/03/08 11:50:11;;;;;;;6;10.3;;;;;;;5.4;51.9;99330;;;;
2022/03/08 12:00:11;;;;;;;6;10.3;;;;;;;5.9;50.6;99330;;;;
2022/03/08 12:10:11;;;;;;;6;10.3;;;;;;;6.1;48.4;99310;;;;
2022/03/08 12:21:11;;;;;;;4.8;9.3;;;;;;;5.8;49.4;99300;;;;
2022/03/08 12:32:11;;;;;;;4.8;9.3;;;;;;;5.9;50;99290;;;;
2022/03/08 12:42:11;;;;;;;4.8;9.3;;;;;;;6.4;48.4;99290;;;;
2022/03/08 12:52:11;;;;;;;5.1;8.6;;;;;;;6.5;49.2;99280;;;;
2022/03/08 13:02:11;;;;;;;5.1;8.6;;;;;;;6.4;49.2;99270;;;;
2022/03/08 13:12:11;;;;;;;5.1;8.6;;;;;;;6.2;51.3;99270;;;;
2022/03/08 13:22:11;;;;;;;9.2;12.3;;;;;;;5.9;51.4;99280;;;;
2022/03/08 13:33:11;;;;;;;9.2;12.3;;;;;;;6.2;52;99280;;;;
2022/03/08 13:43:11;;;;;;;9.2;12.3;;;;;;;6.1;51.9;99280;;;;
2022/03/08 13:54:11;;;;;;;12.7;20.6;;;;;;;6.4;51.7;99270;;;;
2022/03/08 14:04:11;;;;;;;12.7;20.6;;;;;;;5.8;52;99280;;;;
2022/03/08 14:14:11;;;;;;;12.7;20.6;;;;;;;5.9;52.2;99280;;;;
2022/03/08 14:25:11;;;;;;;11.9;16;;;;;;;5.8;51.4;99270;;;;
2022/03/08 14:35:11;;;;;;;11.9;16;;;;;;;5.7;52.6;99260;;;;
2022/03/08 14:45:11;;;;;;;13.6;15.6;;;;;;;5.2;52.9;99260;;;;
2022/03/08 14:56:11;;;;;;;13.6;15.6;;;;;;;4.9;53.7;99260;;;;
2022/03/08 15:06:11;;;;;;;13.6;15.6;;;;;;;4.7;53.7;99260;;;;
2022/03/08 15:17:12;;;;;;;16.1;22.4;;;;;;;4.6;54.7;99260;;;;
2022/03/08 15:27:11;;;;;;;16.1;22.4;;;;;;;4.4;54.8;99270;;;;
2022/03/08 15:37:11;;;;;;;16.1;22.4;;;;;;;4.1;56.2;99270;;;;
2022/03/08 15:48:11;;;;;;;15.8;19.4;;;;;;;4.2;56.5;99290;;;;
2022/03/08 15:58:11;;;;;;;15.8;19.4;;;;;;;3.9;57;99290;;;;
2022/03/08 16:09:11;;;;;;;15.8;19.4;;;;;;;3.6;58.1;99320;;;;
2022/03/08 16:19:12;;;;;;;17;24.4;;;;;;;3.4;58.8;99330;;;;
2022/03/08 16:30:11;;;;;;;17;24.4;;;;;;;3.3;59.7;99320;;;;
2022/03/08 16:40:11;;;;;;;17;24.4;;;;;;;3.2;60;99330;;;;
2022/03/08 16:51:11;;;;;;;18.6;25.1;;;;;;;3.1;60.7;99340;;;;
2022/03/08 17:02:12;;;;;;;18.6;25.1;;;;;;;3;61.4;99360;;;;
2022/03/08 17:12:11;;;;;;;18.6;25.1;;;;;;;2.9;61.9;99360;;;;
2022/03/08 17:23:11;;;;;;;21.9;26.2;;;;;;;2.8;62.5;99370;;;;
2022/03/08 17:34:11;;;;;;;21.9;26.2;;;;;;;2.7;62.6;99380;;;;
2022/03/08 17:44:12;;;;;;;31.2;40.3;;;;;;;2.6;62.9;99380;;;;
2022/03/08 17:55:11;;;;;;;31.2;40.3;;;;;;;2.6;62.9;99380;;;;
2022/03/08 18:05:11;;;;;;;31.2;40.3;;;;;;;2.5;63.1;99380;;;;
2022/03/08 18:16:11;;;;;;;27.3;32.3;;;;;;;2.5;63.1;99380;;;;
2022/03/08 18:26:11;;;;;;;27.3;32.3;;;;;;;2.5;63;99390;;;;
2022/03/08 18:36:12;;;;;;;27.3;32.3;;;;;;;2.5;63.3;99390;;;;
2022/03/08 18:46:11;;;;;;;37.8;50.4;;;;;;;2.5;63.3;99380;;;;
2022/03/08 18:57:11;;;;;;;37.8;50.4;;;;;;;2.5;63.5;99380;;;;
2022/03/08 19:08:11;;;;;;;37.8;50.4;;;;;;;2.4;64.1;99370;;;;
2022/03/08 19:18:12;;;;;;;59.3;71.7;;;;;;;2.3;65.1;99380;;;;
2022/03/08 19:28:15;;;;;;;59.3;71.7;;;;;;;2.2;65.5;99380;;;;
2022/03/08 19:39:11;;;;;;;59.3;71.7;;;;;;;2.1;66;99370;;;;
2022/03/08 19:50:12;;;;;;;60.2;80.2;;;;;;;1.9;66.5;99370;;;;
2022/03/08 20:01:11;;;;;;;60.2;80.2;;;;;;;1.7;67;99380;;;;
2022/03/08 20:12:13;;;;;;;60.2;80.2;;;;;;;1.6;67.2;99360;;;;
2022/03/08 20:22:11;;;;;;;53.8;67.4;;;;;;;1.5;67.8;99380;;;;
2022/03/08 20:32:11;;;;;;;53.8;67.4;;;;;;;1.6;67.6;99380;;;;
2022/03/08 20:42:11;;;;;;;53.8;67.4;;;;;;;1.7;67.8;99380;;;;
2022/03/08 20:53:11;;;;;;;47;55.7;;;;;;;1.7;67.5;99380;;;;
2022/03/08 21:04:11;;;;;;;47;55.7;;;;;;;1.7;67.5;99380;;;;
2022/03/08 21:15:11;;;;;;;50.3;62.1;;;;;;;1.7;67.4;99390;;;;
2022/03/08 21:25:12;;;;;;;50.3;62.1;;;;;;;1.7;67.7;99400;;;;
2022/03/08 21:36:11;;;;;;;50.3;62.1;;;;;;;1.7;67.7;99400;;;;
2022/03/08 21:46:12;;;;;;;52.3;62;;;;;;;1.6;68.1;99400;;;;
2022/03/08 21:56:11;;;;;;;52.3;62;;;;;;;1.4;68.4;99390;;;;
2022/03/08 22:06:11;;;;;;;52.3;62;;;;;;;1.3;68.9;99400;;;;
2022/03/08 22:17:11;;;;;;;64.7;75.5;;;;;;;1.2;69.2;99390;;;;
2022/03/08 22:27:11;;;;;;;64.7;75.5;;;;;;;1.2;69.5;99380;;;;
2022/03/08 22:37:11;;;;;;;64.7;75.5;;;;;;;1.2;69.8;99380;;;;
2022/03/08 22:47:11;;;;;;;67.6;85.3;;;;;;;1.2;69.7;99390;;;;
2022/03/08 22:58:12;;;;;;;67.6;85.3;;;;;;;1.2;69.8;99410;;;;
2022/03/08 23:08:12;;;;;;;67.6;85.3;;;;;;;1.2;69.9;99410;;;;
2022/03/08 23:18:12;;;;;;;75;86.1;;;;;;;1.1;70.2;99400;;;;
2022/03/08 23:28:12;;;;;;;75;86.1;;;;;;;1.1;70.5;99400;;;;
2022/03/08 23:39:12;;;;;;;75;86.1;;;;;;;1;70.8;99390;;;;
2022/03/08 23:49:12;;;;;;;87.2;101.5;;;;;;;1;70.7;99390;;;;
